Portada
METAR-TAF:

METAR-TAF

Aeropuertos :

Aeropuerto Internacional Amata Kabua

Majuro, Islas Marshall

latitud: 07-04N, longitud: 171-17E, altitud: 2 m

METAR: falta

Hora: 00:16 (12:16 UTC)

Pronóstico

El informe se hizo hace 40 minutos, a las 11:36 UTC
Pronóstico válido del 02 a las 12 UTC al 03 a las 12 UTC
Viento 12 kt del este
Visibilidad: 10 km
Nubes dispersas a una altura de 1500 ft
Nubes dispersas a una altura de 4500 ft
Cielo nuboso a una altura de 11000 ft
chaparrones en las proximidades

TAF: PKMJ 021136Z 0212/0312 08012KT P6SM VCSH SCT015 SCT045 BKN110

Observaciones y pronósticos meteorológicos de más de 4000 aeropuertos (mensajes METAR y TAF).

Los puntos amarillos y rojos representan las estaciones disponibles.

Ponga el ratón en el punto deseado para ver el nombre de la estación.

Haga clic para ver las observaciones y los pronósticos meteorológicos.

Para cambiar el mapa : haga clic en los botones verdes con una cruz de color negro para hacer un zoom, en el botón verde con un guión para alejar o en las flechas verdes para mapas adyacentes.


METAR-TAF: